Etusivu
METAR-TAF:

METAR-TAF

Lentoasemat :

Castlegar, Brittiläinen Kolumbia, Kanada

Leveyspiiri: 49-18N, Pituuspiiri: 117-38W, korkeus merenpinnasta: 495 m

Tämänhetkinen sää

Tämä raportti tehtiin 1 tunti ja 16 minuuttia sitten, kello 13.00 UTC
tyyntä
Lämpötila -2°C
Kosteus 86%
Ilmanpaine 1026 hPa
Näkyvyys: 24.1 km
Muutamia pilviä 22000 ft:n korkeudessa

METAR: CYCG 251300Z 00000KT 15SM FEW220 M02/M04 A3030 RMK CC1 SLP272

Aika: 07:16 (14:16 UTC)

Sääennuste

Tämä raportti tehtiin 13 tuntia ja 38 minuuttia sitten, kello 00.38 UTC
Ennuste voimassa 25. päivästä klo 01 UTC - 25. päivään klo 04 UTC
Tuuli 10 kn lännestä/luoteesta puuskistuen 20 kn:hen
Näkyvyys: 10 km
Muutamia pilviä 10000 ft:n korkeudessa

TAF: CYCG 250038Z 2501/2504 30010G20KT P6SM FEW100 RMK NXT FCST WILL BE ISSUED AT 251445Z

Säähavainnot ja -ennusteet yli 4000 lentoasemalta (METAR- ja TAF-raportit).

Käytössä olevat sääasemat on merkitty karttaan keltaisilla ja punaisilla pisteillä.

Aseta hiiri pisteen päälle nähdäksesi sääaseman nimen.

Klikkaa sitten nähdäksesi säähavainnot ja -ennusteet.

Kartan vaihtaminen: klikkaa mustalla rastilla varustettuja vihreitä pisteitä, niin voit zoomata sisään; viivalla varustettua vihreää pistettä, niin voit zoomata ulos tai vihreitä nuolia, niin pääset viereisille kartoille.


METAR-TAF: